createdAt,value
2023-03-15T00:01:38.969Z,52.59
2023-03-15T00:04:07.744Z,52.50
2023-03-15T00:06:36.537Z,52.68
2023-03-15T00:09:05.339Z,52.68
2023-03-15T00:11:34.207Z,52.35
2023-03-15T00:14:02.736Z,52.33
2023-03-15T00:16:33.132Z,52.15
2023-03-15T00:19:01.734Z,52.39
2023-03-15T00:21:30.588Z,52.33
2023-03-15T00:23:59.109Z,52.39
2023-03-15T00:26:27.959Z,52.27
2023-03-15T00:28:56.517Z,52.39
2023-03-15T00:31:26.129Z,52.36
2023-03-15T00:33:55.017Z,52.38
2023-03-15T00:36:25.477Z,52.31
2023-03-15T00:38:55.707Z,52.18
2023-03-15T00:41:24.890Z,51.97
2023-03-15T00:43:53.519Z,52.16
2023-03-15T00:46:22.379Z,52.18
2023-03-15T00:48:51.634Z,52.07
2023-03-15T00:51:22.470Z,52.07
2023-03-15T00:53:52.158Z,52.06
2023-03-15T00:56:24.924Z,52.08
2023-03-15T00:58:53.618Z,51.97
2023-03-15T01:01:28.235Z,51.96
2023-03-15T01:03:56.956Z,52.09
2023-03-15T01:06:28.567Z,51.87
2023-03-15T01:08:57.474Z,51.88
2023-03-15T01:11:27.750Z,52.19
2023-03-15T01:13:57.580Z,52.01
2023-03-15T01:16:27.474Z,51.88
2023-03-15T01:18:56.080Z,52.01
2023-03-15T01:21:25.125Z,51.95
2023-03-15T01:23:54.286Z,51.90
2023-03-15T01:26:25.823Z,51.86
2023-03-15T01:28:55.328Z,51.87
2023-03-15T01:31:26.997Z,51.97
2023-03-15T01:33:55.394Z,51.70
2023-03-15T01:36:24.945Z,51.85
2023-03-15T01:38:55.134Z,51.66
2023-03-15T01:41:31.859Z,51.83
2023-03-15T01:44:00.313Z,51.68
2023-03-15T01:46:35.054Z,51.55
2023-03-15T01:49:23.409Z,51.41
2023-03-15T01:51:57.104Z,51.67
2023-03-15T01:54:42.161Z,51.41
2023-03-15T01:57:28.178Z,51.58
2023-03-15T01:59:58.085Z,51.40
2023-03-15T02:02:26.840Z,51.37
2023-03-15T02:05:11.743Z,51.51
2023-03-15T02:07:50.174Z,51.13
2023-03-15T02:10:28.878Z,51.08
2023-03-15T02:12:58.726Z,51.07
2023-03-15T02:15:27.292Z,51.11
2023-03-15T02:17:56.466Z,51.09
2023-03-15T02:21:10.251Z,51.02
2023-03-15T02:23:39.056Z,50.89
2023-03-15T02:26:32.169Z,51.03
2023-03-15T02:29:01.416Z,50.93
2023-03-15T02:31:30.006Z,50.88
2023-03-15T02:33:59.197Z,51.09
2023-03-15T02:36:29.504Z,50.73
2023-03-15T02:38:58.343Z,50.80
2023-03-15T02:41:35.751Z,50.78
2023-03-15T02:44:09.172Z,50.61
2023-03-15T02:46:37.590Z,50.65
2023-03-15T02:49:06.933Z,50.66
2023-03-15T02:51:35.300Z,50.66
2023-03-15T02:54:04.055Z,50.52
2023-03-15T02:56:33.713Z,50.59
2023-03-15T02:59:03.774Z,50.35
2023-03-15T03:01:32.820Z,50.44
2023-03-15T03:04:01.492Z,50.47
2023-03-15T03:06:29.780Z,50.28
2023-03-15T03:08:58.531Z,50.49
2023-03-15T03:11:27.071Z,50.43
2023-03-15T03:13:58.010Z,50.27
2023-03-15T03:16:26.404Z,50.22
2023-03-15T03:18:55.035Z,50.18
2023-03-15T03:21:23.480Z,50.06
2023-03-15T03:23:52.157Z,50.05
2023-03-15T03:26:20.396Z,49.95
2023-03-15T03:28:51.338Z,50.18
2023-03-15T03:31:25.658Z,50.05
2023-03-15T03:33:57.123Z,49.83
2023-03-15T03:36:26.881Z,50.01
2023-03-15T03:38:57.208Z,49.89
2023-03-15T03:41:26.509Z,50.10
2023-03-15T03:43:55.343Z,50.11
2023-03-15T03:46:25.092Z,49.75
2023-03-15T03:48:55.534Z,49.90
2023-03-15T03:51:23.905Z,49.84
2023-03-15T03:53:53.064Z,49.96
2023-03-15T03:56:21.613Z,49.76
2023-03-15T03:58:51.237Z,49.86
2023-03-15T04:01:25.135Z,49.86
2023-03-15T04:03:56.154Z,49.67
2023-03-15T04:06:26.053Z,49.82
2023-03-15T04:08:55.112Z,49.38
2023-03-15T04:11:30.238Z,49.68
2023-03-15T04:14:06.331Z,49.58
2023-03-15T04:16:35.131Z,49.81
2023-03-15T04:19:08.014Z,49.74
2023-03-15T04:21:38.238Z,49.70
2023-03-15T04:24:22.904Z,49.73
2023-03-15T04:27:10.085Z,49.51
2023-03-15T04:29:51.113Z,49.39
2023-03-15T04:32:38.034Z,49.54
2023-03-15T04:35:28.517Z,49.51
2023-03-15T04:38:04.204Z,49.48
2023-03-15T04:40:47.688Z,49.51
2023-03-15T04:43:36.178Z,49.41
2023-03-15T04:46:40.265Z,49.41
2023-03-15T04:49:16.500Z,49.44
2023-03-15T04:52:03.690Z,49.56
2023-03-15T04:55:01.261Z,49.35
2023-03-15T04:57:39.671Z,49.33
2023-03-15T05:00:28.239Z,49.21
2023-03-15T05:03:25.780Z,49.35
2023-03-15T05:06:26.640Z,49.20
2023-03-15T05:09:19.523Z,49.18
2023-03-15T05:11:51.148Z,49.26
2023-03-15T05:14:58.627Z,49.27
2023-03-15T05:17:48.342Z,48.79
2023-03-15T05:20:17.285Z,48.83
2023-03-15T05:23:04.847Z,48.59
2023-03-15T05:26:05.844Z,48.41
2023-03-15T05:28:52.851Z,48.50
2023-03-15T05:31:49.446Z,48.24
2023-03-15T05:34:43.020Z,48.33
2023-03-15T05:37:36.058Z,48.07
2023-03-15T05:40:25.203Z,47.63
2023-03-15T05:43:20.222Z,47.40
2023-03-15T05:46:05.526Z,47.38
2023-03-15T05:48:55.808Z,47.10
2023-03-15T05:51:50.389Z,46.78
2023-03-15T05:54:39.289Z,46.55
2023-03-15T05:57:27.896Z,46.31
2023-03-15T06:00:28.758Z,46.09
2023-03-15T06:03:04.970Z,46.02
2023-03-15T06:05:45.525Z,46.12
2023-03-15T06:08:19.136Z,45.96
2023-03-15T06:10:50.457Z,45.85
2023-03-15T06:13:18.894Z,46.26
2023-03-15T06:15:48.237Z,45.99
2023-03-15T06:18:18.768Z,46.00
2023-03-15T06:20:49.777Z,45.84
2023-03-15T06:23:19.757Z,46.10
2023-03-15T06:25:49.576Z,46.22
2023-03-15T06:28:19.578Z,46.31
2023-03-15T06:30:55.263Z,46.44
2023-03-15T06:33:29.634Z,46.39
2023-03-15T06:35:58.453Z,46.43
2023-03-15T06:38:26.836Z,46.37
2023-03-15T06:40:56.567Z,46.41
2023-03-15T06:43:25.278Z,46.48
2023-03-15T06:45:56.246Z,46.54
2023-03-15T06:48:26.787Z,46.19
2023-03-15T06:50:56.130Z,46.46
2023-03-15T06:53:25.103Z,46.35
2023-03-15T06:55:53.672Z,46.44
2023-03-15T06:58:22.548Z,46.76
2023-03-15T07:00:51.227Z,46.48
2023-03-15T07:03:21.860Z,46.99
2023-03-15T07:05:54.186Z,46.36
2023-03-15T07:08:23.935Z,46.55
2023-03-15T07:10:52.861Z,46.29
2023-03-15T07:13:21.194Z,46.67
2023-03-15T07:15:54.453Z,46.58
2023-03-15T07:18:23.189Z,46.57
2023-03-15T07:21:03.258Z,46.58
2023-03-15T07:23:31.936Z,46.47
2023-03-15T07:26:00.882Z,46.59
2023-03-15T07:28:29.272Z,46.55
2023-03-15T07:31:05.423Z,46.78
2023-03-15T07:33:34.312Z,46.78
2023-03-15T07:36:04.445Z,46.54
2023-03-15T07:38:33.481Z,46.68
2023-03-15T07:41:03.068Z,46.53
2023-03-15T07:43:31.830Z,46.60
2023-03-15T07:46:10.624Z,46.34
2023-03-15T07:48:38.939Z,46.54
2023-03-15T07:51:07.758Z,46.44
2023-03-15T07:53:36.152Z,46.55
2023-03-15T07:56:05.548Z,46.61
2023-03-15T07:58:33.797Z,46.67
2023-03-15T08:01:02.717Z,46.60
2023-03-15T08:03:31.705Z,46.73
2023-03-15T08:06:00.395Z,46.52
2023-03-15T08:08:28.716Z,46.98
2023-03-15T08:10:57.415Z,46.86
2023-03-15T08:13:26.242Z,47.01
2023-03-15T08:15:55.082Z,46.99
2023-03-15T08:18:23.457Z,46.96
2023-03-15T08:20:52.438Z,46.95
2023-03-15T08:23:22.057Z,47.17
2023-03-15T08:25:50.690Z,47.25
2023-03-15T08:28:19.086Z,47.12
2023-03-15T08:30:47.795Z,47.05
2023-03-15T08:33:16.237Z,47.28
2023-03-15T08:35:45.059Z,47.33
2023-03-15T08:38:13.369Z,47.49
2023-03-15T08:40:41.966Z,47.56
2023-03-15T08:43:10.541Z,47.61
2023-03-15T08:45:56.727Z,47.57
2023-03-15T08:48:27.552Z,47.94
2023-03-15T08:50:57.021Z,48.08
2023-03-15T08:53:25.442Z,48.15
2023-03-15T08:55:54.066Z,48.20
2023-03-15T08:58:22.397Z,48.25
2023-03-15T09:00:51.715Z,48.46
2023-03-15T09:03:20.644Z,48.55
2023-03-15T09:05:49.773Z,48.41
2023-03-15T09:08:21.276Z,48.16
2023-03-15T09:10:50.353Z,48.28
2023-03-15T09:13:18.765Z,47.98
2023-03-15T09:15:51.327Z,48.08
2023-03-15T09:18:21.032Z,48.24
2023-03-15T09:20:50.221Z,48.38
2023-03-15T09:23:18.598Z,48.30
2023-03-15T09:25:47.381Z,48.10
2023-03-15T09:28:15.924Z,48.06
2023-03-15T09:30:44.763Z,47.97
2023-03-15T09:33:15.130Z,48.05
2023-03-15T09:35:43.931Z,48.23
2023-03-15T09:38:12.311Z,48.43
2023-03-15T09:40:45.601Z,48.26
2023-03-15T09:43:44.636Z,47.87
2023-03-15T09:46:32.825Z,48.06
2023-03-15T09:49:38.295Z,47.89
2023-03-15T09:52:37.887Z,48.22
2023-03-15T09:55:21.998Z,48.06
2023-03-15T09:58:04.127Z,47.98
2023-03-15T10:00:51.794Z,47.80
2023-03-15T10:04:03.625Z,47.69
2023-03-15T10:06:37.403Z,47.69
2023-03-15T10:09:17.149Z,47.59
2023-03-15T10:12:01.056Z,47.13
2023-03-15T10:14:54.545Z,46.61
2023-03-15T10:17:53.528Z,46.55
2023-03-15T10:21:13.591Z,46.49
2023-03-15T10:23:55.423Z,46.39
2023-03-15T10:26:32.983Z,46.53
2023-03-15T10:29:02.855Z,46.20
2023-03-15T10:31:44.251Z,46.57
2023-03-15T10:34:14.440Z,46.65
2023-03-15T10:36:54.511Z,46.33
2023-03-15T10:39:24.998Z,46.74
2023-03-15T10:41:53.651Z,46.59
2023-03-15T10:44:26.621Z,46.55
2023-03-15T10:47:23.036Z,46.80
2023-03-15T10:49:58.252Z,46.85
2023-03-15T10:52:39.245Z,46.68
2023-03-15T10:55:21.707Z,46.43
2023-03-15T10:57:56.839Z,45.28
2023-03-15T11:00:34.128Z,45.79
2023-03-15T11:03:21.510Z,45.77
2023-03-15T11:05:55.381Z,45.31
2023-03-15T11:08:39.661Z,44.95
2023-03-15T11:11:08.907Z,45.03
2023-03-15T11:13:39.368Z,45.17
2023-03-15T11:16:13.699Z,44.81
2023-03-15T11:19:03.796Z,44.69
2023-03-15T11:21:33.756Z,44.56
2023-03-15T11:24:03.521Z,44.90
2023-03-15T11:26:39.522Z,44.83
2023-03-15T11:29:21.266Z,44.67
2023-03-15T11:31:51.402Z,44.81
2023-03-15T11:34:58.335Z,44.92
2023-03-15T11:37:34.053Z,45.02
2023-03-15T11:40:19.629Z,45.00
2023-03-15T11:43:03.111Z,44.91
2023-03-15T11:46:15.313Z,44.87
2023-03-15T11:49:18.433Z,44.86
2023-03-15T11:51:47.295Z,44.46
2023-03-15T11:54:17.383Z,44.42
2023-03-15T11:56:57.994Z,43.99
2023-03-15T11:59:32.822Z,44.14
2023-03-15T12:02:15.267Z,44.00
2023-03-15T12:04:47.563Z,43.87
2023-03-15T12:07:19.779Z,43.68
2023-03-15T12:09:52.853Z,43.90
2023-03-15T12:12:24.756Z,43.55
2023-03-15T12:15:14.297Z,43.89
2023-03-15T12:18:00.532Z,43.43
2023-03-15T12:20:39.823Z,43.20
2023-03-15T12:23:17.532Z,43.42
2023-03-15T12:26:02.856Z,42.85
2023-03-15T12:28:49.788Z,42.68
2023-03-15T12:31:18.255Z,42.74
2023-03-15T12:33:58.756Z,42.67
2023-03-15T12:36:41.949Z,42.50
2023-03-15T12:39:16.535Z,42.51
2023-03-15T12:41:50.177Z,42.00
2023-03-15T12:44:32.320Z,42.31
2023-03-15T12:47:11.428Z,42.33
2023-03-15T12:49:44.257Z,42.45
2023-03-15T12:52:13.679Z,42.12
2023-03-15T12:55:17.551Z,42.45
2023-03-15T12:57:51.501Z,42.46
2023-03-15T13:00:22.879Z,42.70
2023-03-15T13:03:20.282Z,42.55
2023-03-15T13:06:25.002Z,42.61
2023-03-15T13:09:09.518Z,42.63
2023-03-15T13:11:59.740Z,42.61
2023-03-15T13:15:18.024Z,42.75
2023-03-15T13:17:59.302Z,42.64
2023-03-15T13:21:07.233Z,42.66
2023-03-15T13:23:35.940Z,42.82
2023-03-15T13:26:26.173Z,42.64
2023-03-15T13:29:02.676Z,42.79
2023-03-15T13:31:31.834Z,42.87
2023-03-15T13:34:22.307Z,42.74
2023-03-15T13:36:58.352Z,42.86
2023-03-15T13:39:29.853Z,42.88
2023-03-15T13:42:19.384Z,42.88
2023-03-15T13:44:48.028Z,42.88
2023-03-15T13:47:22.416Z,42.84
2023-03-15T13:49:53.071Z,42.75
2023-03-15T13:52:21.379Z,42.77
2023-03-15T13:54:49.960Z,42.75
2023-03-15T13:57:20.029Z,42.68
2023-03-15T14:00:01.302Z,42.57
2023-03-15T14:03:01.086Z,42.56
2023-03-15T14:05:32.910Z,42.38
2023-03-15T14:08:08.190Z,42.37
2023-03-15T14:10:38.767Z,42.28
2023-03-15T14:13:53.331Z,42.12
2023-03-15T14:17:01.085Z,42.13
2023-03-15T14:19:32.191Z,41.86
2023-03-15T14:22:13.903Z,42.27
2023-03-15T14:24:48.065Z,41.74
2023-03-15T14:27:22.306Z,42.00
2023-03-15T14:29:54.726Z,41.77
2023-03-15T14:32:26.768Z,42.04
2023-03-15T14:35:04.013Z,42.22
2023-03-15T14:37:42.814Z,42.12
2023-03-15T14:40:23.944Z,41.85
2023-03-15T14:42:52.713Z,41.46
2023-03-15T14:45:22.512Z,41.26
2023-03-15T14:48:02.454Z,41.18
2023-03-15T14:50:40.117Z,40.92
2023-03-15T14:53:11.918Z,40.96
2023-03-15T14:55:40.916Z,41.15
2023-03-15T14:58:18.232Z,40.99
2023-03-15T15:00:49.312Z,40.89
2023-03-15T15:03:26.084Z,41.01
2023-03-15T15:05:54.352Z,41.04
2023-03-15T15:08:23.084Z,40.88
2023-03-15T15:10:53.107Z,41.10
2023-03-15T15:13:27.851Z,40.80
2023-03-15T15:15:57.008Z,40.57
2023-03-15T15:18:28.513Z,40.78
2023-03-15T15:20:57.631Z,40.82
2023-03-15T15:23:54.874Z,40.56
2023-03-15T15:26:28.372Z,40.42
2023-03-15T15:28:57.634Z,40.38
2023-03-15T15:31:27.207Z,40.45
2023-03-15T15:33:56.928Z,40.45
2023-03-15T15:36:32.628Z,39.96
2023-03-15T15:39:07.219Z,39.83
2023-03-15T15:41:35.741Z,40.18
2023-03-15T15:44:04.536Z,40.03
2023-03-15T15:46:33.284Z,40.05
2023-03-15T15:49:01.962Z,39.87
2023-03-15T15:51:35.780Z,39.66
2023-03-15T15:54:04.569Z,39.63
2023-03-15T15:56:35.610Z,39.59
2023-03-15T15:59:04.754Z,39.26
2023-03-15T16:01:36.569Z,39.28
2023-03-15T16:04:08.148Z,39.01
2023-03-15T16:06:37.139Z,39.36
2023-03-15T16:09:06.958Z,39.30
2023-03-15T16:11:36.780Z,39.11
2023-03-15T16:14:05.960Z,38.87
2023-03-15T16:16:38.086Z,38.57
2023-03-15T16:19:07.449Z,38.51
2023-03-15T16:21:44.303Z,38.30
2023-03-15T16:24:21.416Z,38.15
2023-03-15T16:26:50.077Z,38.09
2023-03-15T16:29:23.973Z,37.81
2023-03-15T16:31:52.390Z,38.03
2023-03-15T16:34:24.062Z,38.28
2023-03-15T16:36:55.274Z,38.12
2023-03-15T16:39:24.125Z,38.32
2023-03-15T16:41:52.905Z,38.25
2023-03-15T16:44:21.724Z,38.34
2023-03-15T16:46:50.231Z,38.49
2023-03-15T16:49:19.019Z,38.56
2023-03-15T16:51:51.487Z,38.83
2023-03-15T16:54:34.659Z,38.89
2023-03-15T16:57:22.550Z,38.82
2023-03-15T16:59:51.733Z,38.82
2023-03-15T17:02:22.894Z,39.24
2023-03-15T17:04:53.048Z,39.28
2023-03-15T17:07:30.553Z,39.41
2023-03-15T17:10:07.206Z,39.42
2023-03-15T17:12:35.705Z,39.74
2023-03-15T17:15:05.126Z,39.87
2023-03-15T17:17:34.182Z,39.82
2023-03-15T17:20:06.699Z,40.02
2023-03-15T17:22:35.193Z,40.18
2023-03-15T17:25:04.221Z,40.05
2023-03-15T17:27:42.261Z,40.27
2023-03-15T17:30:32.446Z,40.42
2023-03-15T17:33:01.158Z,40.41
2023-03-15T17:35:36.364Z,40.32
2023-03-15T17:38:06.252Z,40.66
2023-03-15T17:40:36.502Z,40.70
2023-03-15T17:43:05.001Z,40.51
2023-03-15T17:45:34.639Z,40.83
2023-03-15T17:48:02.944Z,40.78
2023-03-15T17:50:33.072Z,40.93
2023-03-15T17:53:14.402Z,41.26
2023-03-15T17:55:43.348Z,41.15
2023-03-15T17:58:20.604Z,41.18
2023-03-15T18:00:54.772Z,41.46
2023-03-15T18:03:23.425Z,41.46
2023-03-15T18:05:52.164Z,41.43
2023-03-15T18:08:21.478Z,41.33
2023-03-15T18:10:50.795Z,41.62
2023-03-15T18:13:21.847Z,41.80
2023-03-15T18:15:51.280Z,42.02
2023-03-15T18:18:19.790Z,42.09
2023-03-15T18:20:49.635Z,43.07
2023-03-15T18:23:18.219Z,43.45
2023-03-15T18:25:47.186Z,42.84
2023-03-15T18:28:15.541Z,43.21
2023-03-15T18:30:44.936Z,43.38
2023-03-15T18:33:15.721Z,44.38
2023-03-15T18:35:44.725Z,44.64
2023-03-15T18:38:13.143Z,45.25
2023-03-15T18:40:42.385Z,45.34
2023-03-15T18:43:14.528Z,45.67
2023-03-15T18:45:43.260Z,45.37
2023-03-15T18:48:11.816Z,45.42
2023-03-15T18:50:40.795Z,45.43
2023-03-15T18:53:09.629Z,45.29
2023-03-15T18:55:38.635Z,45.54
2023-03-15T18:58:13.189Z,45.61
2023-03-15T19:00:42.410Z,45.47
2023-03-15T19:03:11.970Z,45.52
2023-03-15T19:05:40.569Z,45.59
2023-03-15T19:08:09.031Z,45.19
2023-03-15T19:10:37.839Z,45.79
2023-03-15T19:13:06.139Z,45.71
2023-03-15T19:15:34.748Z,45.67
2023-03-15T19:18:03.089Z,45.89
2023-03-15T19:20:31.902Z,45.88
2023-03-15T19:23:00.182Z,45.96
2023-03-15T19:25:28.999Z,45.99
2023-03-15T19:27:57.584Z,45.94
2023-03-15T19:30:27.706Z,46.10
2023-03-15T19:32:56.065Z,46.14
2023-03-15T19:35:26.179Z,46.20
2023-03-15T19:37:54.505Z,46.13
2023-03-15T19:40:23.164Z,46.09
2023-03-15T19:42:51.530Z,46.33
2023-03-15T19:45:20.299Z,45.98
2023-03-15T19:47:48.608Z,46.20
2023-03-15T19:50:17.536Z,46.26
2023-03-15T19:52:46.243Z,46.15
2023-03-15T19:55:17.711Z,46.48
2023-03-15T19:57:46.188Z,46.20
2023-03-15T20:00:16.368Z,46.38
2023-03-15T20:02:45.079Z,46.11
2023-03-15T20:05:15.889Z,46.27
2023-03-15T20:07:44.648Z,46.11
2023-03-15T20:10:13.608Z,46.05
2023-03-15T20:12:43.002Z,46.00
2023-03-15T20:15:13.347Z,45.67
2023-03-15T20:17:42.760Z,45.73
2023-03-15T20:20:14.011Z,45.97
2023-03-15T20:22:44.632Z,45.60
2023-03-15T20:25:17.611Z,45.65
2023-03-15T20:27:46.587Z,45.51
2023-03-15T20:30:17.061Z,45.42
2023-03-15T20:32:48.362Z,45.45
2023-03-15T20:35:17.328Z,45.51
2023-03-15T20:37:46.394Z,45.29
2023-03-15T20:40:16.406Z,45.35
2023-03-15T20:42:45.973Z,45.38
2023-03-15T20:45:15.017Z,45.24
2023-03-15T20:47:44.171Z,45.27
2023-03-15T20:50:13.490Z,45.17
2023-03-15T20:52:44.083Z,44.86
2023-03-15T20:55:14.041Z,45.18
2023-03-15T20:57:43.362Z,44.93
2023-03-15T21:00:21.174Z,44.86
2023-03-15T21:02:51.098Z,44.55
2023-03-15T21:05:19.749Z,44.71
2023-03-15T21:07:48.517Z,44.58
2023-03-15T21:10:17.037Z,44.77
2023-03-15T21:12:46.174Z,44.38
2023-03-15T21:15:19.119Z,44.55
2023-03-15T21:17:53.273Z,44.53
2023-03-15T21:20:21.892Z,44.53
2023-03-15T21:22:51.646Z,44.33
2023-03-15T21:25:20.286Z,44.44
2023-03-15T21:27:49.032Z,44.42
2023-03-15T21:30:18.468Z,44.46
2023-03-15T21:32:47.900Z,44.51
2023-03-15T21:35:17.457Z,44.29
2023-03-15T21:37:46.183Z,44.39
2023-03-15T21:40:15.050Z,44.33
2023-03-15T21:42:43.759Z,44.16
2023-03-15T21:45:12.439Z,44.31
2023-03-15T21:47:41.888Z,44.12
2023-03-15T21:50:12.193Z,44.06
2023-03-15T21:52:42.222Z,44.13
2023-03-15T21:55:15.646Z,44.20
2023-03-15T21:57:47.457Z,43.84
2023-03-15T22:00:18.921Z,43.79
2023-03-15T22:02:47.660Z,43.85
2023-03-15T22:05:16.638Z,44.00
2023-03-15T22:07:45.248Z,43.76
2023-03-15T22:10:14.470Z,43.37
2023-03-15T22:12:43.319Z,43.50
2023-03-15T22:15:12.448Z,43.06
2023-03-15T22:17:41.297Z,43.10
2023-03-15T22:20:19.584Z,42.93
2023-03-15T22:22:49.290Z,42.66
2023-03-15T22:25:17.817Z,42.10
2023-03-15T22:27:46.492Z,41.69
2023-03-15T22:30:15.340Z,42.04
2023-03-15T22:32:44.617Z,41.70
2023-03-15T22:35:14.028Z,41.46
2023-03-15T22:37:43.582Z,41.50
2023-03-15T22:40:15.800Z,40.75
2023-03-15T22:42:47.057Z,40.78
2023-03-15T22:45:15.648Z,40.72
2023-03-15T22:47:44.717Z,40.13
2023-03-15T22:50:13.750Z,40.17
2023-03-15T22:52:42.940Z,40.09
2023-03-15T22:55:12.199Z,39.91
2023-03-15T22:57:40.972Z,39.69
2023-03-15T23:00:14.086Z,39.78
2023-03-15T23:02:46.886Z,39.33
2023-03-15T23:05:16.010Z,39.50
2023-03-15T23:07:45.030Z,38.90
2023-03-15T23:10:13.811Z,38.86
2023-03-15T23:12:42.920Z,38.62
2023-03-15T23:15:14.416Z,38.98
2023-03-15T23:17:46.953Z,38.67
2023-03-15T23:20:17.204Z,38.60
2023-03-15T23:22:46.960Z,38.45
2023-03-15T23:25:18.420Z,38.54
2023-03-15T23:27:48.724Z,38.46
2023-03-15T23:30:17.611Z,38.32
2023-03-15T23:32:46.398Z,38.13
2023-03-15T23:35:15.125Z,37.81
2023-03-15T23:37:43.690Z,37.53
2023-03-15T23:40:14.340Z,37.78
2023-03-15T23:42:44.019Z,37.65
2023-03-15T23:45:15.663Z,37.59
2023-03-15T23:47:44.294Z,37.43
2023-03-15T23:50:13.901Z,37.35
2023-03-15T23:52:42.500Z,37.28
2023-03-15T23:55:11.792Z,37.29
2023-03-15T23:57:40.527Z,37.24
